Terminal Aerodrome Forecast
Issued by NWS Birmingham, AL

Home | Current Version | Previous Version | Text Only | Print | Product List | Glossary On
Versions: 1 2 3 4 5 6 7 8 9 10 11 12 13
000
FTUS44 KBMX 120520
TAFBHM
TAF
KBHM 120520Z 1206/1306 23007KT P6SM SKC
     FM121100 30006KT P6SM SCT250
     FM121500 33012G20KT P6SM SCT040
      TEMPO 1216/1219 BKN040
     FM121900 32012G22KT P6SM SCT040
     FM130000 31008KT P6SM SKC=

USA.gov is the U.S. government's official web portal to all federal, state and local government web resources and services.